Time;durP1;ratioP1;P1;durP2;ratioP2;P2;SDS_P1;SDS_P2;PMS_P1;PMS_P2;Temp;Humidity;BMP_temperature;BMP_pressure;BME280_temperature;BME280_humidity;BME280_pressure;Samples;Min_cycle;Max_cycle;Signal;HPM_P1;HPM_P2
2022/02/09 00:01:18;;;;;;;;;;;;;;;7.73;53.96;99220.72;1722788;82;22500;-53
2022/02/09 00:03:26;;;;;;;10.40;5.65;;;;;;;7.71;53.90;99230.85;1723551;80;21062;-54
2022/02/09 00:06:01;;;;;;;10.95;5.95;;;;;;;7.63;54.09;99227.65;1720539;80;21572;-51
2022/02/09 00:08:23;;;;;;;10.10;5.25;;;;;;;7.55;54.34;99236.66;1720501;81;20970;-53
2022/02/09 00:10:59;;;;;;;10.00;5.40;;;;;;;7.55;54.41;99232.73;1720667;82;21580;-53
2022/02/09 00:19:29;;;;;;;11.38;5.33;;;;;;;7.68;54.20;99222.64;1712548;82;21554;-52
2022/02/09 00:42:30;;;;;;;8.60;5.20;;;;;;;7.73;54.49;99196.31;1709704;81;21395;-54
2022/02/09 00:45:18;;;;;;;10.63;4.22;;;;;;;7.83;54.58;99191.58;1688347;84;21410;-54
2022/02/09 01:32:57;;;;;;;14.40;5.85;;;;;;;20.51;37.42;99159.09;1685210;82;21640;-54
2022/02/09 10:03:55;;;;;;;4.72;1.77;;;;;;;12.44;59.44;99479.25;1763531;80;21470;-53
2022/02/09 10:34:14;;;;;;;5.58;2.10;;;;;;;13.36;53.13;99487.90;1754932;80;21371;-54
2022/02/09 10:36:49;;;;;;;6.20;3.10;;;;;;;13.31;53.16;99493.90;1756739;80;21425;-54
2022/02/09 10:39:17;;;;;;;5.30;2.52;;;;;;;13.43;53.09;99493.22;1758685;79;22349;-53
2022/02/09 10:41:54;;;;;;;4.17;2.15;;;;;;;13.51;51.80;99489.30;1766723;80;21473;-53
2022/02/09 10:44:24;;;;;;;8.03;2.12;;;;;;;13.56;51.41;99497.34;1749558;80;21552;-53
2022/02/09 10:46:57;;;;;;;5.97;2.33;;;;;;;13.55;52.92;99504.86;1765271;80;21332;-54
2022/02/09 10:49:29;;;;;;;7.05;3.20;;;;;;;13.56;52.76;99508.34;1771767;80;21051;-54
2022/02/09 10:54:29;;;;;;;5.40;2.72;;;;;;;13.74;52.11;99508.61;1733242;81;21522;-53
2022/02/09 10:56:58;;;;;;;5.45;3.37;;;;;;;13.72;52.42;99515.78;1731316;81;21324;-54
2022/02/09 10:59:29;;;;;;;4.90;2.98;;;;;;;13.69;52.26;99509.34;1732809;81;21049;-54
2022/02/09 11:02:01;;;;;;;7.72;3.62;;;;;;;13.90;52.38;99511.23;1731990;81;21636;-54
2022/02/09 11:04:32;;;;;;;7.00;3.50;;;;;;;14.16;52.24;99516.27;1726102;82;22387;-55
2022/02/09 11:07:00;;;;;;;7.33;3.12;;;;;;;14.31;51.20;99515.83;1731347;81;21521;-55
2022/02/09 11:09:26;;;;;;;5.30;3.33;;;;;;;14.43;50.03;99519.99;1732714;81;21731;-55
2022/02/09 11:11:53;;;;;;;5.10;2.75;;;;;;;14.58;50.61;99527.05;1733395;81;21429;-55
2022/02/09 11:14:22;;;;;;;6.72;2.83;;;;;;;14.55;48.33;99521.91;1728446;81;21427;-55
2022/02/09 11:16:53;;;;;;;7.95;3.10;;;;;;;14.68;46.31;99521.56;1730573;82;22659;-55
2022/02/09 11:19:20;;;;;;;6.87;3.33;;;;;;;15.00;45.12;99526.64;1725141;82;21646;-53
2022/02/09 11:21:51;;;;;;;2.95;2.05;;;;;;;15.16;44.39;99529.16;1730159;80;21539;-53
2022/02/09 11:24:22;;;;;;;4.90;2.17;;;;;;;15.32;43.31;99529.05;1727449;80;21605;-56
2022/02/09 11:27:07;;;;;;;5.20;2.45;;;;;;;15.61;43.28;99528.95;1737329;80;21475;-54
2022/02/09 11:32:11;;;;;;;3.12;1.60;;;;;;;16.10;40.71;99530.53;1725349;81;21053;-55
2022/02/09 11:41:37;;;;;;;6.75;2.50;;;;;;;16.80;40.19;99534.63;1704242;82;21494;-54
2022/02/09 11:43:32;;;;;;;5.75;2.65;;;;;;;17.15;39.29;99531.77;1688941;82;22376;-54
2022/02/09 12:00:14;;;;;;;4.60;2.60;;;;;;;16.23;38.20;99550.45;1725254;82;21431;-54
2022/02/09 12:11:37;;;;;;;5.35;1.85;;;;;;;15.39;38.31;99555.53;1719295;82;22306;-53
2022/02/09 12:19:13;;;;;;;6.53;2.83;;;;;;;14.94;38.79;99557.00;1726310;82;21386;-54
2022/02/09 12:22:04;;;;;;;8.15;2.40;;;;;;;14.89;38.81;99559.56;1722174;82;21628;-53
2022/02/09 12:24:27;;;;;;;5.80;2.67;;;;;;;14.67;39.03;99570.60;1718890;82;22615;-52
2022/02/09 12:26:59;;;;;;;10.05;3.35;;;;;;;14.37;39.11;99567.05;1721253;82;21419;-53
2022/02/09 12:29:32;;;;;;;5.55;2.37;;;;;;;14.06;39.58;99565.84;1722942;82;21431;-54
2022/02/09 12:32:00;;;;;;;5.33;2.33;;;;;;;13.81;39.91;99564.14;1720260;81;21380;-54
2022/02/09 12:34:28;;;;;;;6.78;2.50;;;;;;;13.69;40.01;99577.19;1722582;82;21377;-54
2022/02/09 12:36:55;;;;;;;7.58;2.27;;;;;;;13.62;40.42;99565.66;1723782;82;22413;-53
2022/02/09 12:39:23;;;;;;;5.17;2.33;;;;;;;13.57;40.25;99567.70;1721195;82;21423;-52
2022/02/09 12:41:50;;;;;;;4.15;2.20;;;;;;;13.67;40.20;99574.63;1723364;82;21546;-53
2022/02/09 12:44:25;;;;;;;4.80;2.27;;;;;;;13.94;40.08;99576.18;1715048;82;21424;-53
2022/02/09 12:46:48;;;;;;;5.30;2.20;;;;;;;14.01;39.97;99577.53;1720640;82;21375;-53
2022/02/09 12:49:17;;;;;;;7.12;2.30;;;;;;;14.11;39.82;99575.65;1726494;82;22708;-53
2022/02/09 12:51:46;;;;;;;4.45;1.85;;;;;;;14.30;39.79;99582.90;1724459;82;21410;-53
2022/02/09 12:54:14;;;;;;;4.12;2.00;;;;;;;14.30;39.28;99584.22;1728900;82;21439;-53
2022/02/09 12:56:45;;;;;;;6.15;2.30;;;;;;;14.37;39.44;99582.92;1728032;82;20945;-54
2022/02/09 12:59:14;;;;;;;4.20;1.55;;;;;;;14.43;39.35;99580.83;1724702;82;21068;-53
2022/02/09 13:01:50;;;;;;;4.75;2.22;;;;;;;14.46;39.28;99596.53;1730149;81;22599;-53
2022/02/09 13:04:33;;;;;;;5.20;2.17;;;;;;;14.54;39.17;99590.30;1723852;82;21338;-55
2022/02/09 13:07:07;;;;;;;6.30;2.60;;;;;;;14.57;39.07;99595.45;1727855;81;21546;-53
2022/02/09 13:09:35;;;;;;;10.90;3.17;;;;;;;14.59;39.19;99589.59;1732710;81;21572;-53
2022/02/09 13:12:03;;;;;;;3.75;2.10;;;;;;;14.54;39.14;99596.91;1734691;81;21601;-54
2022/02/09 13:14:37;;;;;;;6.03;2.50;;;;;;;14.38;39.31;99603.13;1729825;81;22310;-54
2022/02/09 13:21:02;;;;;;;9.85;3.60;;;;;;;13.93;39.79;99617.23;1732316;82;21155;-56
2022/02/09 13:22:41;;;;;;;6.90;2.77;;;;;;;13.94;40.11;99622.91;1692026;81;21458;-53
2022/02/09 13:25:29;;;;;;;7.55;3.15;;;;;;;14.00;39.92;99624.72;1731001;82;21460;-53
2022/02/09 14:07:06;;;;;;;6.42;2.33;;;;;;;13.24;40.14;99676.88;1737256;81;21457;-54
2022/02/09 14:34:52;;;;;;;7.33;2.40;;;;;;;12.09;42.27;99695.87;1728956;82;21048;-54
2022/02/09 14:58:27;;;;;;;7.97;2.00;;;;;;;11.36;43.62;99733.91;1725317;82;21622;-53
2022/02/09 15:08:57;;;;;;;3.72;2.10;;;;;;;10.99;44.23;99750.45;1729611;82;21473;-54
2022/02/09 15:11:29;;;;;;;6.30;2.60;;;;;;;10.94;44.40;99762.93;1725515;81;21420;-54
2022/02/09 15:14:04;;;;;;;8.03;2.92;;;;;;;10.94;44.42;99768.19;1730872;82;21354;-53
2022/02/09 15:19:09;;;;;;;5.33;3.80;;;;;;;10.87;44.66;99768.93;1728543;82;21450;-53
2022/02/09 15:21:59;;;;;;;7.67;3.47;;;;;;;10.81;44.68;99771.36;1727715;80;21496;-53
2022/02/09 15:23:52;;;;;;;5.78;3.60;;;;;;;10.75;44.80;99777.31;1727586;80;21592;-53
2022/02/09 15:26:20;;;;;;;7.83;3.77;;;;;;;10.76;44.86;99779.89;1721990;80;21338;-53
2022/02/09 15:28:49;;;;;;;11.05;4.25;;;;;;;10.69;45.09;99776.64;1731593;82;22695;-52
2022/02/09 15:31:25;;;;;;;9.40;4.00;;;;;;;10.62;45.26;99782.22;1727066;82;21535;-53
2022/02/09 15:33:51;;;;;;;5.67;3.42;;;;;;;10.54;45.33;99779.90;1730341;81;21025;-53
2022/02/09 15:36:25;;;;;;;9.03;3.95;;;;;;;10.51;45.42;99780.05;1726769;82;21410;-53
2022/02/09 15:38:47;;;;;;;7.37;3.65;;;;;;;10.37;45.60;99792.41;1729529;82;21493;-54
2022/02/09 16:24:25;;;;;;;10.55;3.60;;;;;;;9.79;47.69;99845.81;1730751;82;21434;-54
2022/02/09 16:33:13;;;;;;;7.17;3.17;;;;;;;9.79;47.71;99857.16;1730262;81;21441;-53
2022/02/09 16:45:29;;;;;;;7.45;3.22;;;;;;;9.71;48.05;99867.09;1725437;80;20997;-54
2022/02/09 16:48:01;;;;;;;7.47;3.10;;;;;;;9.74;48.16;99867.84;1727005;80;22369;-55
2022/02/09 16:50:34;;;;;;;7.33;3.00;;;;;;;9.74;48.21;99870.47;1723581;80;20956;-54
2022/02/09 16:56:19;;;;;;;6.97;3.30;;;;;;;9.72;48.21;99872.30;1638439;85;21495;-54
2022/02/09 17:20:03;;;;;;;6.53;3.27;;;;;;;9.31;48.65;99885.55;1719623;80;21612;-54
2022/02/09 17:22:29;;;;;;;5.92;3.37;;;;;;;9.35;48.69;99889.31;1693395;82;21483;-54
2022/02/09 17:24:56;;;;;;;6.55;3.42;;;;;;;9.36;48.78;99882.29;1728024;80;21056;-54
2022/02/09 17:27:28;;;;;;;8.58;3.98;;;;;;;9.41;48.69;99882.16;1724239;80;22169;-54
2022/02/09 17:35:30;;;;;;;9.95;4.17;;;;;;;9.38;48.76;99885.75;1719656;80;21533;-54
2022/02/09 17:55:22;;;;;;;6.25;3.77;;;;;;;9.38;48.16;99894.94;1707991;82;22679;-54
2022/02/09 17:56:48;;;;;;;7.72;3.83;;;;;;;9.43;48.01;99894.77;1684948;83;21469;-55
2022/02/09 17:59:19;;;;;;;8.08;4.35;;;;;;;9.44;48.00;99888.16;1687370;83;21025;-56
2022/02/09 18:01:40;;;;;;;8.10;3.85;;;;;;;9.50;47.91;99894.97;1689394;83;21542;-55
2022/02/09 18:04:07;;;;;;;8.23;3.50;;;;;;;9.48;47.83;99894.16;1689614;83;21542;-55
2022/02/09 18:06:33;;;;;;;10.13;4.20;;;;;;;9.47;47.82;99886.72;1691716;83;22279;-55
2022/02/09 18:09:07;;;;;;;9.05;4.70;;;;;;;9.50;47.68;99888.41;1691057;83;21416;-55
2022/02/09 18:33:13;;;;;;;7.28;3.72;;;;;;;9.37;47.32;99904.16;1688408;83;22693;-53
2022/02/09 18:46:41;;;;;;;6.62;3.20;;;;;;;9.10;47.59;99897.16;1696319;83;22324;-54
2022/02/09 18:57:24;;;;;;;4.22;2.62;;;;;;;8.96;47.78;99896.73;1722013;82;21542;-54
2022/02/09 19:02:12;;;;;;;6.65;3.02;;;;;;;9.01;47.58;99902.70;1723590;81;21269;-54
2022/02/09 19:20:30;;;;;;;11.97;6.15;;;;;;;8.92;47.26;99902.98;1700522;83;20973;-53
2022/02/09 19:31:09;;;;;;;8.60;4.78;;;;;;;8.69;47.75;99895.86;1724988;82;20975;-53
2022/02/09 19:47:17;;;;;;;7.78;4.00;;;;;;;8.24;48.71;99909.40;1716457;82;20905;-54
2022/02/09 19:50:30;;;;;;;7.33;3.92;;;;;;;8.18;48.79;99911.28;1714350;81;21561;-55
2022/02/09 19:55:06;;;;;;;10.58;5.00;;;;;;;8.09;49.38;99918.55;1709085;81;21053;-53
2022/02/09 19:57:19;;;;;;;9.88;5.00;;;;;;;8.03;49.54;99920.89;1678932;83;21438;-53
2022/02/09 19:59:47;;;;;;;10.45;5.60;;;;;;;7.98;49.68;99918.38;1685237;83;21621;-53
2022/02/09 20:02:14;;;;;;;;;;;;;;;7.91;49.86;99915.55;1695435;83;21505;-53
2022/02/09 20:04:40;;;;;;;11.40;6.08;;;;;;;7.85;50.36;99913.53;1691271;83;22253;-53
2022/02/09 20:07:07;;;;;;;12.35;6.55;;;;;;;7.82;50.70;99916.22;1694829;83;21542;-55
2022/02/09 20:09:35;;;;;;;12.07;6.60;;;;;;;7.91;50.54;99914.23;1687010;83;21452;-54
2022/02/09 20:12:01;;;;;;;15.40;6.70;;;;;;;7.94;50.91;99914.59;1692131;83;21508;-54
2022/02/09 20:14:30;;;;;;;12.73;6.47;;;;;;;7.95;50.96;99903.23;1694600;83;20874;-55
2022/02/09 20:16:57;;;;;;;10.45;5.65;;;;;;;7.94;51.10;99899.73;1688966;83;22572;-54
2022/02/09 20:19:24;;;;;;;10.72;6.40;;;;;;;8.13;51.00;99904.00;1699459;83;21454;-55
2022/02/09 20:21:50;;;;;;;14.20;6.22;;;;;;;8.17;51.15;99893.87;1690846;83;21639;-54
2022/02/09 20:24:17;;;;;;;12.05;6.33;;;;;;;8.33;50.86;99892.10;1696280;83;21569;-55
2022/02/09 20:26:44;;;;;;;10.13;5.58;;;;;;;8.34;50.94;99898.61;1690156;83;21438;-56
2022/02/09 20:29:17;;;;;;;9.23;4.75;;;;;;;8.42;50.88;99894.48;1693526;83;22365;-54
2022/02/09 20:31:49;;;;;;;9.20;4.67;;;;;;;8.38;51.07;99884.94;1687291;83;21646;-54
2022/02/09 20:34:21;;;;;;;8.98;4.47;;;;;;;8.37;51.21;99887.17;1693595;82;21363;-54
2022/02/09 20:36:42;;;;;;;8.75;4.70;;;;;;;8.49;51.08;99880.73;1686213;83;21422;-54
2022/02/09 20:39:11;;;;;;;8.55;4.30;;;;;;;8.55;50.97;99887.97;1695280;83;21415;-54
2022/02/09 20:41:38;;;;;;;10.45;5.08;;;;;;;8.51;50.93;99888.09;1697697;83;22274;-56
2022/02/09 20:44:20;;;;;;;6.42;3.80;;;;;;;8.74;50.46;99888.71;1698666;83;22175;-54
2022/02/09 20:46:36;;;;;;;6.97;4.42;;;;;;;8.72;50.62;99889.19;1691997;83;21536;-54
2022/02/09 20:49:03;;;;;;;14.63;6.05;;;;;;;8.90;50.31;99884.67;1690168;83;21471;-55
2022/02/09 20:51:30;;;;;;;9.77;6.60;;;;;;;8.93;50.18;99878.03;1693907;83;21427;-54
2022/02/09 20:53:58;;;;;;;11.73;6.12;;;;;;;8.92;50.25;99883.32;1692139;83;22629;-54
2022/02/09 20:56:25;;;;;;;9.05;5.33;;;;;;;8.99;50.14;99876.98;1724673;81;21455;-55
2022/02/09 20:58:57;;;;;;;7.00;4.70;;;;;;;9.01;50.02;99874.31;1728793;80;21431;-54
2022/02/09 21:01:27;;;;;;;12.10;5.03;;;;;;;9.00;50.13;99874.73;1719062;82;21460;-54
2022/02/09 21:03:54;;;;;;;8.70;3.77;;;;;;;9.01;50.27;99881.72;1722581;82;21347;-54
2022/02/09 21:09:24;;;;;;;7.62;3.55;;;;;;;9.07;50.16;99882.81;1712738;82;21336;-55
2022/02/09 21:12:00;;;;;;;8.83;3.75;;;;;;;8.93;50.45;99885.91;1724007;82;21494;-55
2022/02/09 21:14:29;;;;;;;10.70;3.75;;;;;;;9.03;50.39;99884.30;1710986;82;21430;-55
2022/02/09 21:24:57;;;;;;;9.90;4.00;;;;;;;9.08;50.20;99888.48;1724528;82;21584;-54
2022/02/09 21:33:00;;;;;;;8.78;4.30;;;;;;;9.12;50.18;99874.81;1719809;82;22352;-54
2022/02/09 21:46:25;;;;;;;11.57;5.15;;;;;;;8.87;50.54;99883.48;1726075;82;22330;-54
2022/02/09 21:56:50;;;;;;;12.05;5.37;;;;;;;8.71;50.68;99863.43;1723869;82;21546;-54
2022/02/09 22:23:13;;;;;;;12.95;6.37;;;;;;;8.50;52.60;99858.88;1619050;86;21306;-53
2022/02/09 22:27:56;;;;;;;11.97;5.87;;;;;;;8.57;53.01;99857.78;1741931;80;22239;-53
2022/02/09 22:47:35;;;;;;;16.77;6.80;;;;;;;8.75;54.14;99857.17;1730987;81;21463;-55
2022/02/09 22:49:18;;;;;;;12.50;6.05;;;;;;;8.68;65.33;99853.49;1710101;80;21669;-55
2022/02/09 22:54:32;;;;;;;15.15;6.42;;;;;;;8.74;67.08;99848.93;1740323;80;22319;-54
2022/02/09 22:56:52;;;;;;;9.70;5.58;;;;;;;8.71;68.16;99849.48;1734439;81;21426;-54
2022/02/09 22:59:29;;;;;;;15.20;5.62;;;;;;;8.63;68.00;99845.79;1736730;80;21371;-54
2022/02/09 23:01:55;;;;;;;11.45;5.22;;;;;;;8.81;62.19;99840.86;1739432;80;21202;-55
2022/02/09 23:09:53;;;;;;;12.25;5.75;;;;;;;8.80;57.71;99840.01;1736066;80;21392;-55
2022/02/09 23:12:21;;;;;;;12.93;5.67;;;;;;;8.81;57.71;99837.77;1729594;81;20997;-55
2022/02/09 23:14:54;;;;;;;14.30;6.35;;;;;;;8.88;57.02;99829.27;1739999;80;21536;-54
2022/02/09 23:25:54;;;;;;;10.85;5.85;;;;;;;9.01;56.69;99817.92;1735485;80;21435;-55
2022/02/09 23:29:15;;;;;;;12.03;5.92;;;;;;;9.03;56.83;99817.41;1726726;80;21554;-53
